LNICK ENBN-ENRA
Flight info
| Callsign | LNICK |
|---|---|
| Flight time | 0h 40m |
| Altitude | 5000 |
| Route | PEPIB DCT PETOK |
| Aircraft | BN2P/L-SFG/C |
Departure
| Time | 2026-05-04 20:27 |
|---|---|
| Airport | Brønnøysund Airport, Brønnøy (ENBN) |
Arrival
| Time | 2026-05-04 21:07 |
|---|---|
| Airport | Mo i Rana Airport, Røssvoll (ENRA) |
| Time | Latitude | Longitude | Altitude | Speed | Heading |
|---|---|---|---|---|---|
| 2026-05-04 20:15 | 65.45959 | 12.20998 | 4 ft | 0 kts | 309° |
| 2026-05-04 20:23 | 65.45972 | 12.20966 | 4 ft | 0 kts | 320° |
| 2026-05-04 20:23 | 65.45963 | 12.21000 | 4 ft | 6 kts | 136° |
| 2026-05-04 20:23 | 65.45905 | 12.21036 | 4 ft | 12 kts | 218° |
| 2026-05-04 20:23 | 65.45875 | 12.20977 | 4 ft | 3 kts | 214° |
| 2026-05-04 20:24 | 65.45828 | 12.21054 | 4 ft | 11 kts | 127° |
| 2026-05-04 20:24 | 65.45763 | 12.21084 | 4 ft | 14 kts | 217° |
| 2026-05-04 20:24 | 65.45673 | 12.20906 | 4 ft | 15 kts | 220° |
| 2026-05-04 20:24 | 65.45600 | 12.20766 | 4 ft | 12 kts | 216° |
| 2026-05-04 20:25 | 65.45514 | 12.20602 | 4 ft | 16 kts | 217° |
| 2026-05-04 20:25 | 65.45438 | 12.20429 | 4 ft | 10 kts | 243° |
| 2026-05-04 20:25 | 65.45422 | 12.20412 | 4 ft | 4 kts | 134° |
| 2026-05-04 20:25 | 65.45442 | 12.20460 | 4 ft | 5 kts | 34° |
| 2026-05-04 20:26 | 65.45444 | 12.20463 | 4 ft | 0 kts | 33° |
| 2026-05-04 20:26 | 65.45608 | 12.20779 | 4 ft | 69 kts | 39° |
| 2026-05-04 20:26 | 65.46027 | 12.21651 | 268 ft | 86 kts | 39° |
| 2026-05-04 20:27 | 65.46471 | 12.22617 | 622 ft | 87 kts | 38° |
| 2026-05-04 20:27 | 65.47040 | 12.23168 | 828 ft | 101 kts | 6° |
| 2026-05-04 20:27 | 65.47797 | 12.23018 | 978 ft | 113 kts | 341° |
| 2026-05-04 20:27 | 65.48518 | 12.22308 | 1239 ft | 112 kts | 336° |
| 2026-05-04 20:28 | 65.49211 | 12.21588 | 1494 ft | 107 kts | 338° |
| 2026-05-04 20:28 | 65.49893 | 12.20967 | 1755 ft | 104 kts | 340° |
| 2026-05-04 20:28 | 65.50566 | 12.20410 | 2015 ft | 102 kts | 341° |
| 2026-05-04 20:28 | 65.51235 | 12.19890 | 2277 ft | 100 kts | 342° |
| 2026-05-04 20:29 | 65.51887 | 12.19404 | 2534 ft | 99 kts | 342° |
| 2026-05-04 20:29 | 65.52546 | 12.18926 | 2795 ft | 98 kts | 342° |
| 2026-05-04 20:29 | 65.53194 | 12.18464 | 3056 ft | 97 kts | 343° |
| 2026-05-04 20:29 | 65.53856 | 12.18131 | 3319 ft | 97 kts | 351° |
| 2026-05-04 20:30 | 65.54511 | 12.17933 | 3575 ft | 96 kts | 351° |
| 2026-05-04 20:30 | 65.55192 | 12.17730 | 3837 ft | 101 kts | 351° |
| 2026-05-04 20:30 | 65.55897 | 12.17520 | 4100 ft | 104 kts | 351° |
| 2026-05-04 20:30 | 65.56628 | 12.17302 | 4364 ft | 109 kts | 350° |
| 2026-05-04 20:31 | 65.57385 | 12.17077 | 4625 ft | 112 kts | 350° |
| 2026-05-04 20:31 | 65.58167 | 12.16846 | 4892 ft | 114 kts | 350° |
| 2026-05-04 20:31 | 65.58981 | 12.16604 | 5013 ft | 123 kts | 350° |
| 2026-05-04 20:31 | 65.59865 | 12.16341 | 5023 ft | 129 kts | 351° |
| 2026-05-04 20:32 | 65.60741 | 12.16080 | 5023 ft | 127 kts | 351° |
| 2026-05-04 20:32 | 65.61617 | 12.15821 | 5022 ft | 125 kts | 350° |
| 2026-05-04 20:32 | 65.62472 | 12.15564 | 5030 ft | 123 kts | 351° |
| 2026-05-04 20:32 | 65.63309 | 12.15495 | 5025 ft | 124 kts | 8° |
| 2026-05-04 20:33 | 65.64085 | 12.16488 | 5025 ft | 127 kts | 28° |
| 2026-05-04 20:33 | 65.64786 | 12.17785 | 5024 ft | 127 kts | 32° |
| 2026-05-04 20:33 | 65.65469 | 12.19143 | 5024 ft | 126 kts | 31° |
| 2026-05-04 20:33 | 65.66142 | 12.20465 | 5025 ft | 126 kts | 31° |
| 2026-05-04 20:34 | 65.66832 | 12.21810 | 5028 ft | 126 kts | 31° |
| 2026-05-04 20:34 | 65.67512 | 12.23128 | 5028 ft | 126 kts | 32° |
| 2026-05-04 20:34 | 65.68194 | 12.24444 | 5028 ft | 125 kts | 32° |
| 2026-05-04 20:34 | 65.68877 | 12.25762 | 5027 ft | 125 kts | 32° |
| 2026-05-04 20:35 | 65.69557 | 12.27077 | 5026 ft | 126 kts | 32° |
| 2026-05-04 20:35 | 65.70242 | 12.28397 | 5027 ft | 126 kts | 32° |
| 2026-05-04 20:35 | 65.70923 | 12.29712 | 5028 ft | 126 kts | 32° |
| 2026-05-04 20:35 | 65.71613 | 12.31044 | 5027 ft | 126 kts | 31° |
| 2026-05-04 20:36 | 65.72298 | 12.32370 | 5020 ft | 126 kts | 31° |
| 2026-05-04 20:36 | 65.72972 | 12.33673 | 5024 ft | 125 kts | 31° |
| 2026-05-04 20:36 | 65.73656 | 12.34996 | 5025 ft | 124 kts | 31° |
| 2026-05-04 20:36 | 65.74333 | 12.36308 | 5025 ft | 124 kts | 31° |
| 2026-05-04 20:37 | 65.75005 | 12.37609 | 5026 ft | 124 kts | 31° |
| 2026-05-04 20:37 | 65.75682 | 12.38921 | 5025 ft | 125 kts | 31° |
| 2026-05-04 20:37 | 65.76361 | 12.40237 | 5025 ft | 125 kts | 31° |
| 2026-05-04 20:37 | 65.77038 | 12.41551 | 5024 ft | 125 kts | 31° |
| 2026-05-04 20:38 | 65.77715 | 12.42866 | 5023 ft | 125 kts | 31° |
| 2026-05-04 20:38 | 65.78400 | 12.44199 | 5021 ft | 125 kts | 31° |
| 2026-05-04 20:38 | 65.79081 | 12.45522 | 5020 ft | 125 kts | 31° |
| 2026-05-04 20:38 | 65.79760 | 12.46845 | 5020 ft | 126 kts | 31° |
| 2026-05-04 20:39 | 65.80449 | 12.48187 | 5018 ft | 126 kts | 31° |
| 2026-05-04 20:39 | 65.81129 | 12.49512 | 5016 ft | 126 kts | 31° |
| 2026-05-04 20:39 | 65.81816 | 12.50853 | 5015 ft | 126 kts | 31° |
| 2026-05-04 20:39 | 65.82491 | 12.52172 | 5014 ft | 126 kts | 31° |
| 2026-05-04 20:40 | 65.83173 | 12.53557 | 5016 ft | 127 kts | 36° |
| 2026-05-04 20:40 | 65.83818 | 12.55019 | 5017 ft | 128 kts | 36° |
| 2026-05-04 20:40 | 65.84473 | 12.56509 | 5013 ft | 128 kts | 36° |
| 2026-05-04 20:40 | 65.85128 | 12.58001 | 5009 ft | 129 kts | 36° |
| 2026-05-04 20:41 | 65.85782 | 12.59490 | 5007 ft | 128 kts | 36° |
| 2026-05-04 20:41 | 65.86433 | 12.60976 | 5007 ft | 128 kts | 35° |
| 2026-05-04 20:41 | 65.87080 | 12.62449 | 5005 ft | 128 kts | 35° |
| 2026-05-04 20:41 | 65.87773 | 12.63777 | 5004 ft | 126 kts | 28° |
| 2026-05-04 20:42 | 65.88500 | 12.64970 | 5006 ft | 126 kts | 26° |
| 2026-05-04 20:42 | 65.89222 | 12.66177 | 5002 ft | 126 kts | 28° |
| 2026-05-04 20:42 | 65.89933 | 12.67430 | 5000 ft | 127 kts | 30° |
| 2026-05-04 20:42 | 65.90654 | 12.68748 | 4999 ft | 128 kts | 31° |
| 2026-05-04 20:43 | 65.91357 | 12.70066 | 4997 ft | 128 kts | 31° |
| 2026-05-04 20:43 | 65.92064 | 12.71413 | 4995 ft | 129 kts | 31° |
| 2026-05-04 20:43 | 65.92767 | 12.72768 | 4994 ft | 129 kts | 32° |
| 2026-05-04 20:43 | 65.93464 | 12.74122 | 4992 ft | 129 kts | 32° |
| 2026-05-04 20:44 | 65.94159 | 12.75479 | 4991 ft | 128 kts | 32° |
| 2026-05-04 20:44 | 65.94862 | 12.76856 | 4991 ft | 128 kts | 32° |
| 2026-05-04 20:44 | 65.95551 | 12.78207 | 4991 ft | 128 kts | 32° |
| 2026-05-04 20:44 | 65.96251 | 12.79583 | 4990 ft | 128 kts | 32° |
| 2026-05-04 20:45 | 65.96948 | 12.80955 | 4990 ft | 128 kts | 32° |
| 2026-05-04 20:45 | 65.97640 | 12.82318 | 4989 ft | 128 kts | 32° |
| 2026-05-04 20:45 | 65.98334 | 12.83686 | 4988 ft | 128 kts | 31° |
| 2026-05-04 20:45 | 65.99032 | 12.85064 | 4988 ft | 129 kts | 32° |
| 2026-05-04 20:46 | 65.99728 | 12.86439 | 4987 ft | 129 kts | 32° |
| 2026-05-04 20:46 | 66.00433 | 12.87835 | 4985 ft | 130 kts | 32° |
| 2026-05-04 20:46 | 66.01133 | 12.89220 | 4983 ft | 130 kts | 32° |
| 2026-05-04 20:46 | 66.01833 | 12.90609 | 4982 ft | 129 kts | 32° |
| 2026-05-04 20:47 | 66.02537 | 12.92003 | 4982 ft | 129 kts | 32° |
| 2026-05-04 20:47 | 66.03235 | 12.93388 | 4982 ft | 129 kts | 32° |
| 2026-05-04 20:47 | 66.03929 | 12.94766 | 4980 ft | 129 kts | 32° |
| 2026-05-04 20:47 | 66.04626 | 12.96150 | 4976 ft | 129 kts | 32° |
| 2026-05-04 20:48 | 66.05325 | 12.97541 | 4972 ft | 129 kts | 32° |
| 2026-05-04 20:48 | 66.06018 | 12.98920 | 4968 ft | 128 kts | 32° |
| 2026-05-04 20:48 | 66.06709 | 13.00295 | 4969 ft | 128 kts | 31° |
| 2026-05-04 20:48 | 66.07405 | 13.01682 | 4975 ft | 128 kts | 32° |
| 2026-05-04 20:49 | 66.08092 | 13.03052 | 4980 ft | 129 kts | 32° |
| 2026-05-04 20:49 | 66.08797 | 13.04456 | 4986 ft | 129 kts | 32° |
| 2026-05-04 20:49 | 66.09491 | 13.05842 | 4986 ft | 130 kts | 32° |
| 2026-05-04 20:49 | 66.10196 | 13.07251 | 4986 ft | 130 kts | 32° |
| 2026-05-04 20:50 | 66.10905 | 13.08670 | 4982 ft | 131 kts | 32° |
| 2026-05-04 20:50 | 66.11610 | 13.10080 | 4982 ft | 131 kts | 32° |
| 2026-05-04 20:50 | 66.12318 | 13.11498 | 4982 ft | 131 kts | 32° |
| 2026-05-04 20:50 | 66.13021 | 13.12908 | 4985 ft | 130 kts | 32° |
| 2026-05-04 20:51 | 66.13718 | 13.14307 | 4981 ft | 131 kts | 32° |
| 2026-05-04 20:51 | 66.14423 | 13.15723 | 4975 ft | 130 kts | 32° |
| 2026-05-04 20:51 | 66.15128 | 13.17137 | 4971 ft | 130 kts | 32° |
| 2026-05-04 20:51 | 66.15823 | 13.18533 | 4971 ft | 130 kts | 33° |
| 2026-05-04 20:52 | 66.16526 | 13.19949 | 4969 ft | 130 kts | 33° |
| 2026-05-04 20:52 | 66.17232 | 13.21367 | 4970 ft | 130 kts | 32° |
| 2026-05-04 20:52 | 66.17932 | 13.22780 | 4964 ft | 129 kts | 32° |
| 2026-05-04 20:52 | 66.18625 | 13.24177 | 4959 ft | 129 kts | 32° |
| 2026-05-04 20:53 | 66.19318 | 13.25576 | 4958 ft | 128 kts | 32° |
| 2026-05-04 20:53 | 66.20001 | 13.26954 | 4962 ft | 128 kts | 32° |
| 2026-05-04 20:53 | 66.20695 | 13.28354 | 4970 ft | 128 kts | 32° |
| 2026-05-04 20:53 | 66.21385 | 13.29751 | 4965 ft | 129 kts | 32° |
| 2026-05-04 20:54 | 66.22073 | 13.31144 | 4966 ft | 129 kts | 32° |
| 2026-05-04 20:54 | 66.22776 | 13.32566 | 4968 ft | 129 kts | 32° |
| 2026-05-04 20:54 | 66.23465 | 13.33962 | 4969 ft | 129 kts | 32° |
| 2026-05-04 20:54 | 66.24168 | 13.35387 | 4970 ft | 130 kts | 33° |
| 2026-05-04 20:55 | 66.24865 | 13.36802 | 4972 ft | 130 kts | 33° |
| 2026-05-04 20:55 | 66.25574 | 13.38242 | 4975 ft | 131 kts | 33° |
| 2026-05-04 20:55 | 66.26218 | 13.39822 | 4975 ft | 135 kts | 52° |
| 2026-05-04 20:55 | 66.26554 | 13.42039 | 4984 ft | 139 kts | 66° |
| 2026-05-04 20:56 | 66.26782 | 13.44397 | 4984 ft | 141 kts | 77° |
| 2026-05-04 20:56 | 66.26904 | 13.46829 | 4991 ft | 142 kts | 77° |
| 2026-05-04 20:56 | 66.27041 | 13.49231 | 4999 ft | 142 kts | 76° |
| 2026-05-04 20:56 | 66.27197 | 13.51665 | 5007 ft | 142 kts | 75° |
| 2026-05-04 20:57 | 66.27364 | 13.54095 | 5008 ft | 143 kts | 75° |
| 2026-05-04 20:57 | 66.27537 | 13.56542 | 5008 ft | 144 kts | 75° |
| 2026-05-04 20:57 | 66.27713 | 13.58971 | 5005 ft | 144 kts | 75° |
| 2026-05-04 20:57 | 66.27889 | 13.61402 | 5005 ft | 143 kts | 75° |
| 2026-05-04 20:58 | 66.28067 | 13.63834 | 5009 ft | 143 kts | 75° |
| 2026-05-04 20:58 | 66.28247 | 13.66287 | 5001 ft | 143 kts | 75° |
| 2026-05-04 20:58 | 66.28423 | 13.68683 | 5000 ft | 142 kts | 75° |
| 2026-05-04 20:58 | 66.28600 | 13.71111 | 5005 ft | 142 kts | 75° |
| 2026-05-04 20:59 | 66.28779 | 13.73554 | 5003 ft | 143 kts | 76° |
| 2026-05-04 20:59 | 66.28953 | 13.75946 | 5000 ft | 143 kts | 76° |
| 2026-05-04 20:59 | 66.29060 | 13.78418 | 5001 ft | 144 kts | 83° |
| 2026-05-04 20:59 | 66.29121 | 13.80894 | 4971 ft | 146 kts | 83° |
| 2026-05-04 21:00 | 66.29183 | 13.83459 | 4780 ft | 144 kts | 83° |
| 2026-05-04 21:00 | 66.29242 | 13.85890 | 4596 ft | 142 kts | 83° |
| 2026-05-04 21:00 | 66.29301 | 13.88347 | 4392 ft | 141 kts | 83° |
| 2026-05-04 21:00 | 66.29358 | 13.90756 | 4205 ft | 140 kts | 83° |
| 2026-05-04 21:01 | 66.29414 | 13.93120 | 4023 ft | 138 kts | 84° |
| 2026-05-04 21:01 | 66.29469 | 13.95499 | 3842 ft | 137 kts | 84° |
| 2026-05-04 21:01 | 66.29524 | 13.97873 | 3654 ft | 136 kts | 84° |
| 2026-05-04 21:01 | 66.29578 | 14.00197 | 3473 ft | 136 kts | 84° |
| 2026-05-04 21:02 | 66.29672 | 14.02525 | 3285 ft | 134 kts | 76° |
| 2026-05-04 21:02 | 66.29938 | 14.04738 | 3097 ft | 133 kts | 69° |
| 2026-05-04 21:02 | 66.30232 | 14.06905 | 2912 ft | 133 kts | 69° |
| 2026-05-04 21:02 | 66.30526 | 14.09090 | 2729 ft | 134 kts | 69° |
| 2026-05-04 21:03 | 66.30819 | 14.11284 | 2544 ft | 134 kts | 70° |
| 2026-05-04 21:03 | 66.31110 | 14.13459 | 2361 ft | 134 kts | 70° |
| 2026-05-04 21:03 | 66.31401 | 14.15643 | 2180 ft | 133 kts | 70° |
| 2026-05-04 21:03 | 66.31693 | 14.17833 | 1995 ft | 133 kts | 70° |
| 2026-05-04 21:04 | 66.31986 | 14.20027 | 1812 ft | 133 kts | 70° |
| 2026-05-04 21:04 | 66.32275 | 14.22199 | 1631 ft | 133 kts | 70° |
| 2026-05-04 21:04 | 66.32564 | 14.24381 | 1485 ft | 130 kts | 69° |
| 2026-05-04 21:04 | 66.32835 | 14.26423 | 1464 ft | 116 kts | 70° |
| 2026-05-04 21:05 | 66.33067 | 14.28169 | 1480 ft | 103 kts | 70° |
| 2026-05-04 21:05 | 66.33284 | 14.29827 | 1468 ft | 98 kts | 70° |
| 2026-05-04 21:05 | 66.33538 | 14.31386 | 1296 ft | 102 kts | 65° |
| 2026-05-04 21:05 | 66.33918 | 14.32702 | 1170 ft | 88 kts | 34° |
| 2026-05-04 21:06 | 66.34463 | 14.33299 | 971 ft | 84 kts | 3° |
| 2026-05-04 21:06 | 66.34994 | 14.33021 | 734 ft | 80 kts | 323° |
| 2026-05-04 21:06 | 66.35414 | 14.32155 | 516 ft | 76 kts | 316° |
| 2026-05-04 21:06 | 66.35823 | 14.31331 | 330 ft | 74 kts | 316° |
| 2026-05-04 21:07 | 66.36201 | 14.30538 | 196 ft | 67 kts | 314° |
| 2026-05-04 21:07 | 66.36500 | 14.29900 | 170 ft | 36 kts | 320° |
| 2026-05-04 21:07 | 66.36585 | 14.29722 | 161 ft | 6 kts | 316° |
| 2026-05-04 21:07 | 66.36610 | 14.29699 | 160 ft | 0 kts | 343° |
| 2026-05-04 21:08 | 66.36614 | 14.29692 | 159 ft | 0 kts | 309° |
| 2026-05-04 21:08 | 66.36615 | 14.29663 | 159 ft | 0 kts | 240° |
| 2026-05-04 21:08 | 66.36614 | 14.29659 | 159 ft | 0 kts | 230° |
| 2026-05-04 21:08 | 66.36606 | 14.29661 | 159 ft | 3 kts | 141° |
| 2026-05-04 21:09 | 66.36491 | 14.29922 | 170 ft | 23 kts | 140° |
| 2026-05-04 21:09 | 66.36407 | 14.30104 | 175 ft | 10 kts | 135° |
| 2026-05-04 21:09 | 66.36412 | 14.30204 | 177 ft | 4 kts | 45° |
| 2026-05-04 21:09 | 66.36432 | 14.30280 | 178 ft | 5 kts | 116° |
| 2026-05-04 21:10 | 66.36410 | 14.30359 | 178 ft | 3 kts | 52° |
| 2026-05-04 21:10 | 66.36423 | 14.30358 | 179 ft | 0 kts | 311° |